Tamworth, New South Wales

5:06 AM AEST on September 29, 2016 (GMT +1000)
South Tamworth | | Change Station

Elev 1322 ft 31.11 °S, 150.90 °E | Updated 0 second ago

Overcast
Overcast
50.4 °F
Feels Like 50.4 °F
N
1.0
Wind Variable Wind from SSW
Gusts 3.0 mph

Today
High -- | Low -- °F
--% Chance of Precip.
Yesterday
High -- | Low -- °F
Precip. -- in
Pressure 29.65 in
Visibility 6.2 miles
Clouds Scattered Clouds 8700 ft
Overcast 11000 ft
Dew Point 46 °F
Humidity 84%
Rainfall 0.00 in
Snow Depth Not available.
5:37 AM 5:57 PM
Waning Crescent, 5% visible
METAR YSTW 281900Z AUTO 20004KT 150V230 9999 // SCT087 OVC110 10/07 Q1004
Pressure 29.65 in
Visibility 6.2 miles
Clouds Scattered Clouds 8700 ft
Overcast 11000 ft
Dew Point 46 °F
Humidity 84%
Rainfall 0.00 in
Snow Depth Not available.
5:37 AM 5:57 PM
Waning Crescent, 5% visible
METAR YSTW 281900Z AUTO 20004KT 150V230 9999 // SCT087 OVC110 10/07 Q1004

10-Day Weather Forecast

No radar image for this location.
×

Almanac

Astronomy

Sep. 29, 2016 Rise Set
Actual Time
Civil Twilight
Nautical Twilight
Astronomical Twilight
Moon
Length of Visible Light
Length of Day
Tomorrow will be .
, % of the Moon is Illuminated

Today's Extremes

Country Highs Country Lows

Community

WunderPhotos

Upload Photos

1,942,303 photos uploaded!

WunderBlog® & News

Nearby

Air Quality

  Air Quality AQ Index Pollutant
Not available.

Snow Depth

Station Depth Elevation

Earthquake Activity

City Distance Mag. Time & Date
Minimum magnitude displayed is 2.5.

Coastal Water Temperatures

Place Temperature

Stations

Nearby Weather Stations

Station Location Temp. Windchill Dew Point Humidity Wind Precip. Elev Updated Type